Terminal Aerodrome Forecast
Issued by NWS Wilmington, OH

Current Version | Previous Version | Text Only | Print | Product List | Glossary Off
Versions: 1 2 3 4 5 6 7 8 9 10 11 12 13 14 15 16 17

000
FTUS41 KILN 292338
TAFDAY
TAF
KDAY 292338Z 3000/3024 30006KT P6SM SCT120
     FM300700 32007KT P6SM SCT020
     FM301400 30007KT P6SM FEW035
     FM302200 VRB04KT P6SM SKC=

USA.gov is the U.S. government's official web portal to all federal, state and local government web resources and services.